createdAt,value
2023-01-26T00:03:13.050Z,29.02
2023-01-26T00:08:44.609Z,28.52
2023-01-26T00:14:13.449Z,27.95
2023-01-26T00:19:38.604Z,28.20
2023-01-26T00:25:02.895Z,27.25
2023-01-26T00:30:26.647Z,28.27
2023-01-26T00:35:57.377Z,29.35
2023-01-26T00:41:39.071Z,30.95
2023-01-26T00:47:09.224Z,32.75
2023-01-26T00:52:40.027Z,34.28
2023-01-26T00:58:07.123Z,38.10
2023-01-26T01:03:36.373Z,36.30
2023-01-26T04:52:53.639Z,28.67
2023-01-26T04:58:20.273Z,29.35
2023-01-26T05:03:45.490Z,25.27
2023-01-26T12:48:44.307Z,21.38
2023-01-26T12:54:18.115Z,20.35
2023-01-26T12:59:48.047Z,26.23
2023-01-26T13:05:25.724Z,20.58
2023-01-26T13:10:50.963Z,19.02
2023-01-26T13:16:34.707Z,18.27
2023-01-26T13:22:02.397Z,22.45
2023-01-26T13:27:33.858Z,24.05
2023-01-26T13:33:15.378Z,24.50
2023-01-26T13:38:44.341Z,22.17
2023-01-26T13:44:11.610Z,20.08
2023-01-26T13:49:41.333Z,24.55
2023-01-26T13:55:23.430Z,21.20
2023-01-26T14:01:00.536Z,17.10
2023-01-26T14:06:29.805Z,16.40
2023-01-26T14:12:00.100Z,17.70
2023-01-26T14:17:30.565Z,17.13
2023-01-26T14:23:04.606Z,16.17
2023-01-26T14:28:37.510Z,16.57
2023-01-26T14:34:10.880Z,18.80
2023-01-26T14:39:34.977Z,20.17
2023-01-26T14:45:06.089Z,19.10
2023-01-26T14:50:38.133Z,25.80
2023-01-26T14:56:06.867Z,28.60
2023-01-26T15:01:32.118Z,33.08
2023-01-26T15:06:57.728Z,30.27
2023-01-26T15:12:21.906Z,34.28
2023-01-26T15:18:02.372Z,35.23
2023-01-26T15:23:32.584Z,38.45
2023-01-26T15:29:02.939Z,38.80
2023-01-26T15:34:34.970Z,32.47
2023-01-26T15:40:04.401Z,35.60
2023-01-26T15:45:33.683Z,43.10
2023-01-26T15:51:04.221Z,40.67
2023-01-26T15:56:33.876Z,60.85
2023-01-26T16:02:02.378Z,50.00
2023-01-26T16:07:31.599Z,53.10
2023-01-26T16:12:58.404Z,58.55
2023-01-26T16:18:27.733Z,109.30
2023-01-26T16:23:58.264Z,106.82
2023-01-26T16:29:25.215Z,103.03
2023-01-26T16:34:53.806Z,79.23
2023-01-26T16:40:23.903Z,75.05
2023-01-26T16:45:52.812Z,61.85
2023-01-26T16:51:25.978Z,67.33
2023-01-26T16:56:55.976Z,59.38
2023-01-26T17:02:27.251Z,62.70
2023-01-26T17:07:56.435Z,64.35
2023-01-26T17:13:27.052Z,64.65
2023-01-26T17:18:55.734Z,60.00
2023-01-26T17:24:24.966Z,63.17
2023-01-26T17:29:56.176Z,63.63
2023-01-26T17:35:25.639Z,65.18
2023-01-26T17:40:56.658Z,66.10
2023-01-26T17:46:27.115Z,60.78
2023-01-26T17:51:55.753Z,64.63
2023-01-26T17:57:25.070Z,64.85
2023-01-26T18:02:56.721Z,61.77
2023-01-26T18:08:27.211Z,68.18
2023-01-26T18:13:57.657Z,70.25
2023-01-26T18:19:28.071Z,64.72
2023-01-26T18:24:56.782Z,66.93
2023-01-26T18:30:25.727Z,58.90
2023-01-26T18:36:04.133Z,86.28
2023-01-26T18:41:33.100Z,104.60
2023-01-26T18:47:01.468Z,110.43
2023-01-26T18:52:32.183Z,73.45
2023-01-26T18:58:01.738Z,71.88
2023-01-26T19:03:30.498Z,68.40
2023-01-26T22:38:56.601Z,51.15
2023-01-26T22:44:22.415Z,48.30
2023-01-26T22:49:51.778Z,45.92
2023-01-26T22:55:22.557Z,38.40
2023-01-26T23:00:52.013Z,41.40
2023-01-26T23:06:16.301Z,35.30
2023-01-26T23:11:47.111Z,36.13
2023-01-26T23:17:10.589Z,45.22
2023-01-26T23:22:33.848Z,43.85
2023-01-26T23:27:58.886Z,38.53
2023-01-26T23:33:23.475Z,36.90
2023-01-26T23:38:46.421Z,33.63
2023-01-26T23:44:14.786Z,27.90
2023-01-26T23:49:39.188Z,39.75
2023-01-26T23:55:04.800Z,34.15
